Time;durP1;ratioP1;P1;durP2;ratioP2;P2;SDS_P1;SDS_P2;PMS_P1;PMS_P2;Temp;Humidity;BMP_temperature;BMP_pressure;BME280_temperature;BME280_humidity;BME280_pressure;Samples;Min_cycle;Max_cycle;Signal;HPM_P1;HPM_P2
2023/06/30 00:00:27;;;;;;;4.93;4.40;;;20.20;93.10;;;;;;6277560;28;20219;-64
2023/06/30 00:03:30;;;;;;;5.17;4.53;;;20.20;93.20;;;;;;6277865;28;20411;-64
2023/06/30 00:06:34;;;;;;;5.40;4.20;;;20.10;93.40;;;;;;6277359;28;20234;-64
2023/06/30 00:09:37;;;;;;;4.60;4.03;;;20.00;93.50;;;;;;6274355;28;20230;-64
2023/06/30 00:12:41;;;;;;;4.33;4.00;;;20.00;93.80;;;;;;6277216;28;20238;-64
2023/06/30 00:15:45;;;;;;;4.50;4.20;;;19.90;94.00;;;;;;6276980;28;20212;-64
2023/06/30 00:18:49;;;;;;;5.73;4.13;;;19.90;94.10;;;;;;6277054;28;20231;-64
2023/06/30 00:21:52;;;;;;;4.40;4.00;;;19.80;94.20;;;;;;6263591;28;20231;-64
2023/06/30 00:24:58;;;;;;;5.23;4.73;;;19.70;94.40;;;;;;6276540;28;20228;-64
2023/06/30 00:28:01;;;;;;;4.97;4.47;;;19.70;94.70;;;;;;6277279;28;20247;-64
2023/06/30 00:31:05;;;;;;;4.90;4.50;;;19.70;94.80;;;;;;6277294;28;20227;-64
2023/06/30 00:34:09;;;;;;;4.20;3.90;;;19.70;95.10;;;;;;6263904;28;20240;-65
2023/06/30 00:37:12;;;;;;;5.10;4.30;;;19.60;95.20;;;;;;6251934;28;20239;-64
2023/06/30 00:40:15;;;;;;;5.13;4.60;;;19.60;95.30;;;;;;6252290;28;20235;-64
2023/06/30 00:43:19;;;;;;;4.43;4.00;;;19.50;95.40;;;;;;6252376;28;20289;-64
2023/06/30 00:46:23;;;;;;;5.20;4.80;;;19.50;95.60;;;;;;6252044;28;20228;-64
2023/06/30 00:49:27;;;;;;;4.53;4.13;;;19.50;95.70;;;;;;6251867;28;20232;-64
2023/06/30 00:52:30;;;;;;;8.13;4.63;;;19.50;95.80;;;;;;6251728;28;20242;-64
2023/06/30 00:55:34;;;;;;;5.03;4.63;;;19.40;96.00;;;;;;6251782;28;20228;-64
2023/06/30 00:58:38;;;;;;;5.00;4.60;;;19.40;96.30;;;;;;6252203;28;20314;-64
2023/06/30 01:01:48;;;;;;;4.27;3.97;;;19.40;96.30;;;;;;6251468;28;20393;-63
2023/06/30 01:04:56;;;;;;;5.47;4.20;;;19.40;96.50;;;;;;6251785;28;20244;-63
2023/06/30 01:08:07;;;;;;;4.60;4.20;;;19.30;96.70;;;;;;6251350;28;20232;-63
2023/06/30 01:11:11;;;;;;;4.60;4.20;;;19.30;96.70;;;;;;6251955;28;20208;-64
2023/06/30 01:14:17;;;;;;;4.33;4.03;;;19.20;96.70;;;;;;6251484;28;20211;-63
2023/06/30 01:17:24;;;;;;;4.70;4.30;;;19.20;97.00;;;;;;6251250;28;20549;-65
2023/06/30 01:20:32;;;;;;;4.50;4.10;;;19.20;97.20;;;;;;6251140;28;20220;-63
2023/06/30 01:23:38;;;;;;;4.77;4.10;;;19.10;97.30;;;;;;6242483;28;20232;-63
2023/06/30 01:26:42;;;;;;;4.07;3.77;;;19.10;97.50;;;;;;6251311;28;20240;-63
2023/06/30 01:29:45;;;;;;;5.27;3.80;;;19.10;97.50;;;;;;6251145;28;20383;-63
2023/06/30 01:32:54;;;;;;;4.73;4.33;;;19.10;97.70;;;;;;6250936;28;20234;-63
2023/06/30 01:35:58;;;;;;;4.50;4.10;;;19.10;97.80;;;;;;6251322;28;20231;-63
2023/06/30 01:39:01;;;;;;;4.37;3.97;;;19.00;97.80;;;;;;6250849;28;20273;-63
2023/06/30 01:42:06;;;;;;;5.00;4.50;;;19.00;98.00;;;;;;6250554;28;20228;-64
2023/06/30 01:45:12;;;;;;;4.30;4.00;;;18.90;98.10;;;;;;6250735;28;20216;-64
2023/06/30 01:48:17;;;;;;;6.23;4.47;;;18.90;98.30;;;;;;6250121;28;20556;-64
2023/06/30 01:51:20;;;;;;;4.60;4.30;;;18.80;98.30;;;;;;6250290;28;20232;-64
2023/06/30 01:54:23;;;;;;;4.60;4.07;;;18.80;98.50;;;;;;6250332;28;20660;-64
2023/06/30 01:57:26;;;;;;;5.47;5.03;;;18.80;98.70;;;;;;6249945;28;20242;-64
2023/06/30 02:00:30;;;;;;;5.00;4.43;;;18.70;98.80;;;;;;6250185;28;20242;-64
2023/06/30 02:03:34;;;;;;;4.03;3.60;;;18.70;98.90;;;;;;6250135;28;20232;-64
2023/06/30 02:06:38;;;;;;;5.17;4.60;;;18.70;99.00;;;;;;6250259;28;20239;-63
2023/06/30 02:09:41;;;;;;;4.40;4.00;;;18.70;99.20;;;;;;6250265;28;20357;-63
2023/06/30 02:12:51;;;;;;;5.17;4.77;;;18.70;99.30;;;;;;6249909;28;20358;-63
2023/06/30 02:15:54;;;;;;;4.63;4.30;;;18.70;99.40;;;;;;6250031;28;20228;-63
2023/06/30 02:18:58;;;;;;;4.80;4.50;;;18.60;99.40;;;;;;6249545;28;20746;-64
2023/06/30 02:22:01;;;;;;;4.90;4.40;;;18.60;99.60;;;;;;6250295;28;20502;-64
2023/06/30 02:25:05;;;;;;;4.40;4.00;;;18.60;99.70;;;;;;6249731;28;20347;-64
2023/06/30 02:28:08;;;;;;;5.83;5.00;;;18.50;99.70;;;;;;6245261;28;20333;-65
2023/06/30 02:31:11;;;;;;;5.03;4.60;;;18.50;99.90;;;;;;6249744;28;20242;-65
2023/06/30 02:34:16;;;;;;;4.97;4.67;;;18.50;99.90;;;;;;6262769;28;20232;-65
2023/06/30 02:37:19;;;;;;;4.83;4.00;;;18.50;99.90;;;;;;6274606;28;20243;-64
2023/06/30 02:40:22;;;;;;;4.33;4.03;;;18.40;99.90;;;;;;6274139;28;20231;-65
2023/06/30 02:43:26;;;;;;;6.43;4.40;;;18.40;99.90;;;;;;6274599;28;20313;-65
2023/06/30 02:46:29;;;;;;;6.93;4.10;;;18.40;99.90;;;;;;6274217;28;20237;-64
2023/06/30 02:49:33;;;;;;;4.87;4.57;;;18.40;99.90;;;;;;6273502;28;20242;-65
2023/06/30 02:52:36;;;;;;;4.93;4.53;;;18.30;99.90;;;;;;6274569;28;20237;-65
2023/06/30 02:55:40;;;;;;;4.90;4.40;;;18.30;99.90;;;;;;6274341;28;20323;-65
2023/06/30 02:58:43;;;;;;;5.30;4.80;;;18.20;99.90;;;;;;6273885;28;20227;-65
2023/06/30 03:01:46;;;;;;;5.87;4.87;;;18.20;99.90;;;;;;6273853;28;20234;-65
2023/06/30 03:04:51;;;;;;;5.47;4.97;;;18.10;99.90;;;;;;6273597;28;20287;-65
2023/06/30 03:07:54;;;;;;;4.03;3.73;;;18.10;99.90;;;;;;6272286;28;20232;-65
2023/06/30 03:10:57;;;;;;;5.53;5.03;;;18.10;99.90;;;;;;6273062;28;20314;-65
2023/06/30 03:14:00;;;;;;;5.30;4.80;;;18.10;99.90;;;;;;6273667;28;20219;-65
2023/06/30 03:17:04;;;;;;;5.50;5.10;;;18.10;99.90;;;;;;6274288;28;20233;-65
2023/06/30 03:20:10;;;;;;;6.87;5.77;;;18.20;99.90;;;;;;6272640;28;20288;-65
2023/06/30 03:23:14;;;;;;;5.27;4.70;;;18.10;99.90;;;;;;6273948;28;20665;-65
2023/06/30 03:26:17;;;;;;;5.70;5.20;;;18.10;99.90;;;;;;6272942;28;20642;-65
2023/06/30 03:29:20;;;;;;;5.73;5.20;;;18.10;99.90;;;;;;6273533;28;20769;-64
2023/06/30 03:32:23;;;;;;;5.13;4.67;;;18.10;99.90;;;;;;6273531;28;20227;-65
2023/06/30 03:35:28;;;;;;;5.80;5.30;;;18.30;99.90;;;;;;6273839;28;20559;-65
2023/06/30 03:38:31;;;;;;;4.87;4.53;;;18.40;99.90;;;;;;6273714;28;20228;-65
2023/06/30 03:41:34;;;;;;;5.00;4.60;;;18.70;99.90;;;;;;6274022;28;20227;-65
2023/06/30 03:44:38;;;;;;;4.33;4.03;;;19.10;99.90;;;;;;6273767;28;20234;-65
2023/06/30 03:47:41;;;;;;;4.70;4.30;;;19.30;99.90;;;;;;6273747;28;20227;-65
2023/06/30 03:50:45;;;;;;;4.90;4.50;;;19.40;99.90;;;;;;6273633;28;20227;-65
2023/06/30 03:53:48;;;;;;;4.40;4.00;;;19.40;99.60;;;;;;6273401;28;20227;-65
2023/06/30 03:56:52;;;;;;;5.13;4.63;;;19.30;99.60;;;;;;6273480;28;20235;-65
2023/06/30 03:59:55;;;;;;;5.90;4.47;;;19.20;99.60;;;;;;6273690;28;20223;-65
2023/06/30 04:02:58;;;;;;;5.13;4.73;;;19.10;99.80;;;;;;6260774;28;20219;-65
2023/06/30 04:06:03;;;;;;;4.80;4.50;;;19.10;99.90;;;;;;6277854;28;20322;-65
2023/06/30 04:09:06;;;;;;;5.40;5.00;;;19.10;99.90;;;;;;6278049;28;20234;-65
2023/06/30 04:12:10;;;;;;;6.00;5.40;;;19.10;99.90;;;;;;6277154;28;20231;-65
2023/06/30 04:15:13;;;;;;;6.77;5.93;;;19.20;99.90;;;;;;6277775;28;20339;-65
2023/06/30 04:18:17;;;;;;;5.07;4.67;;;19.30;99.90;;;;;;6277265;28;20231;-65
2023/06/30 04:21:21;;;;;;;5.67;5.13;;;19.40;99.90;;;;;;6277780;28;20253;-65
2023/06/30 04:24:24;;;;;;;5.43;4.90;;;19.60;99.70;;;;;;6277421;28;20238;-65
2023/06/30 04:27:28;;;;;;;5.87;5.47;;;19.70;99.50;;;;;;6277093;28;20239;-65
2023/06/30 04:30:31;;;;;;;5.47;5.07;;;19.90;99.30;;;;;;6277485;28;20227;-65
2023/06/30 04:33:34;;;;;;;5.80;5.40;;;20.00;98.70;;;;;;6276731;28;20565;-65
2023/06/30 04:36:38;;;;;;;6.13;5.60;;;20.10;98.50;;;;;;6268956;28;20239;-65
2023/06/30 04:39:43;;;;;;;10.10;6.20;;;20.10;98.50;;;;;;6278595;28;20232;-66
2023/06/30 04:42:46;;;;;;;6.07;5.67;;;20.10;98.60;;;;;;6276935;28;20227;-65
2023/06/30 04:45:49;;;;;;;6.37;5.87;;;20.10;98.70;;;;;;6276701;28;20602;-65
2023/06/30 04:48:53;;;;;;;6.00;5.50;;;20.10;98.60;;;;;;6276712;28;20246;-65
2023/06/30 04:51:57;;;;;;;6.37;5.80;;;20.20;98.50;;;;;;6276900;28;20231;-65
2023/06/30 04:55:01;;;;;;;5.33;4.93;;;20.30;98.40;;;;;;6276889;28;20922;-65
2023/06/30 04:58:04;;;;;;;7.47;6.77;;;20.30;98.40;;;;;;6277157;28;20310;-65
2023/06/30 05:01:08;;;;;;;6.50;5.90;;;20.30;98.20;;;;;;6277687;28;20246;-65
2023/06/30 05:04:12;;;;;;;6.30;5.80;;;20.40;98.20;;;;;;6277440;28;20254;-65
2023/06/30 05:07:16;;;;;;;6.27;5.77;;;20.50;98.10;;;;;;6276223;28;20231;-65
2023/06/30 05:10:19;;;;;;;6.37;5.77;;;20.60;98.00;;;;;;6275997;28;20563;-66
2023/06/30 05:13:23;;;;;;;6.87;6.27;;;20.70;98.10;;;;;;6275900;28;20682;-65
2023/06/30 05:16:26;;;;;;;8.30;6.33;;;21.00;97.60;;;;;;6276074;28;20233;-65
2023/06/30 05:19:29;;;;;;;7.30;6.70;;;21.30;97.40;;;;;;6275636;28;20547;-66
2023/06/30 05:22:34;;;;;;;6.37;5.83;;;21.40;96.90;;;;;;6275863;28;20242;-66
2023/06/30 05:25:37;;;;;;;6.60;6.00;;;21.60;96.50;;;;;;6275789;28;20564;-65
2023/06/30 05:28:40;;;;;;;6.50;5.87;;;21.60;96.20;;;;;;6275717;28;20293;-65
2023/06/30 05:31:51;;;;;;;6.50;6.00;;;21.80;96.40;;;;;;6275482;28;20369;-65
2023/06/30 05:34:55;;;;;;;7.03;6.33;;;22.10;95.80;;;;;;6275365;28;20239;-65
2023/06/30 05:37:59;;;;;;;6.33;5.73;;;22.40;95.00;;;;;;6275409;28;20536;-65
2023/06/30 05:41:03;;;;;;;8.57;6.67;;;22.50;94.50;;;;;;6275633;28;20523;-65
2023/06/30 05:44:07;;;;;;;7.33;6.73;;;22.60;94.40;;;;;;6275356;28;20203;-65
2023/06/30 05:47:10;;;;;;;8.10;6.97;;;22.60;93.80;;;;;;6275104;28;20228;-65
2023/06/30 05:50:14;;;;;;;7.57;6.83;;;22.60;93.80;;;;;;6275355;28;20529;-65
2023/06/30 05:53:18;;;;;;;7.30;6.70;;;22.60;93.80;;;;;;6275292;28;20281;-65
2023/06/30 05:56:21;;;;;;;6.70;6.20;;;22.70;93.50;;;;;;6275621;28;20231;-65
2023/06/30 05:59:27;;;;;;;6.93;6.33;;;22.80;93.90;;;;;;6275070;28;20661;-65
2023/06/30 06:02:31;;;;;;;6.47;5.97;;;22.90;93.80;;;;;;6275451;28;20310;-65
2023/06/30 06:05:34;;;;;;;8.23;6.50;;;23.00;93.40;;;;;;6275188;28;20238;-65
2023/06/30 06:08:43;;;;;;;7.90;6.20;;;23.20;93.10;;;;;;6274382;28;20231;-65
2023/06/30 06:11:46;;;;;;;9.03;7.03;;;23.40;92.40;;;;;;6274196;28;20302;-65
2023/06/30 06:14:49;;;;;;;7.23;6.60;;;23.70;91.80;;;;;;6274272;28;20250;-65
2023/06/30 06:17:53;;;;;;;7.00;6.30;;;24.10;91.70;;;;;;6272939;28;20223;-66
2023/06/30 06:20:57;;;;;;;6.80;6.07;;;24.80;90.60;;;;;;6273844;28;20257;-66
2023/06/30 06:24:01;;;;;;;7.60;6.23;;;25.50;88.80;;;;;;6273505;28;20305;-66
2023/06/30 06:27:05;;;;;;;6.50;5.67;;;26.00;86.00;;;;;;6273680;28;20520;-65
2023/06/30 06:30:09;;;;;;;6.80;6.30;;;26.50;83.80;;;;;;6273301;28;20234;-66
2023/06/30 06:33:12;;;;;;;7.37;6.60;;;27.00;80.50;;;;;;6273613;28;20238;-65
2023/06/30 06:36:15;;;;;;;6.30;5.87;;;27.40;79.20;;;;;;6274791;28;20230;-65
2023/06/30 06:39:20;;;;;;;6.43;5.83;;;28.00;77.20;;;;;;6274237;28;20227;-65
2023/06/30 06:42:24;;;;;;;7.50;6.90;;;28.20;75.00;;;;;;6274537;28;20329;-66
2023/06/30 06:45:27;;;;;;;6.00;5.50;;;28.50;72.60;;;;;;6274802;28;20227;-65
2023/06/30 06:48:30;;;;;;;6.90;6.20;;;28.80;70.80;;;;;;6274191;28;20256;-65
2023/06/30 06:51:33;;;;;;;7.20;6.50;;;29.30;68.50;;;;;;6274187;28;20235;-65
2023/06/30 06:54:38;;;;;;;6.47;5.97;;;29.30;64.90;;;;;;6274119;28;20241;-66
2023/06/30 06:57:41;;;;;;;6.03;5.53;;;29.70;65.20;;;;;;6273980;28;20237;-65
2023/06/30 07:00:47;;;;;;;5.97;5.50;;;30.40;62.50;;;;;;6274339;28;20223;-65
2023/06/30 07:03:50;;;;;;;6.55;5.70;;;31.30;60.00;;;;;;6276358;28;20518;-67
2023/06/30 07:06:53;;;;;;;7.72;5.60;;;31.90;57.20;;;;;;6274258;28;20237;-67
2023/06/30 07:09:58;;;;;;;7.15;6.43;;;32.00;56.40;;;;;;6273850;28;20241;-67
2023/06/30 07:13:01;;;;;;;8.77;5.53;;;32.10;55.20;;;;;;6275081;28;20284;-67
2023/06/30 07:16:05;;;;;;;6.78;6.18;;;32.50;54.70;;;;;;6275437;28;20232;-67
2023/06/30 07:19:08;;;;;;;7.22;6.63;;;32.20;54.70;;;;;;6274793;28;20679;-67
2023/06/30 07:22:11;;;;;;;7.63;6.78;;;32.50;54.30;;;;;;6274194;28;20219;-67
2023/06/30 07:25:16;;;;;;;10.05;6.45;;;32.60;53.60;;;;;;6274444;28;20226;-67
2023/06/30 07:28:19;;;;;;;8.13;6.43;;;33.10;52.50;;;;;;6274024;28;20223;-67
2023/06/30 07:31:22;;;;;;;7.40;6.30;;;33.20;51.50;;;;;;6273895;28;20309;-67
2023/06/30 07:34:29;;;;;;;7.38;6.75;;;34.10;50.60;;;;;;6269356;28;20671;-67
2023/06/30 07:37:32;;;;;;;7.78;7.07;;;34.80;49.00;;;;;;6261616;28;20227;-68
2023/06/30 07:40:37;;;;;;;6.55;5.95;;;34.90;48.30;;;;;;6270741;28;20751;-66
2023/06/30 07:43:59;;;;;;;8.68;6.35;;;35.10;47.90;;;;;;6282253;28;20231;-66
2023/06/30 07:47:02;;;;;;;11.20;7.43;;;34.90;47.50;;;;;;6279434;28;20234;-67
2023/06/30 07:50:09;;;;;;;6.97;6.28;;;34.80;47.10;;;;;;6278748;28;20267;-67
2023/06/30 07:53:12;;;;;;;6.80;6.20;;;34.50;47.40;;;;;;6279434;28;20220;-67
2023/06/30 07:56:16;;;;;;;6.25;5.75;;;34.30;47.30;;;;;;6280050;28;20215;-70
2023/06/30 07:59:20;;;;;;;7.60;6.90;;;34.00;47.20;;;;;;6278637;28;20218;-67
2023/06/30 08:02:23;;;;;;;7.43;6.72;;;32.60;48.60;;;;;;6278121;28;20329;-67
2023/06/30 08:05:26;;;;;;;6.70;6.18;;;31.30;51.30;;;;;;6277949;28;20233;-68
2023/06/30 08:08:31;;;;;;;7.97;7.28;;;30.80;53.00;;;;;;6277329;28;20231;-68
2023/06/30 08:11:35;;;;;;;8.00;7.22;;;30.60;53.50;;;;;;6276691;28;20280;-67
2023/06/30 08:14:39;;;;;;;10.07;7.15;;;30.40;54.80;;;;;;6277095;28;20310;-67
2023/06/30 08:17:42;;;;;;;7.50;6.18;;;30.20;55.30;;;;;;6277555;28;20652;-68
2023/06/30 08:20:59;;;;;;;7.90;7.10;;;30.20;55.40;;;;;;6277319;28;20372;-67
2023/06/30 08:24:02;;;;;;;8.43;7.68;;;29.90;56.00;;;;;;6277514;28;20226;-67
2023/06/30 08:27:07;;;;;;;8.88;8.07;;;29.90;55.40;;;;;;6275740;28;20234;-67
2023/06/30 08:30:11;;;;;;;8.03;6.77;;;29.50;56.30;;;;;;6277229;28;20234;-67
2023/06/30 08:33:14;;;;;;;7.90;7.20;;;29.40;57.40;;;;;;6275646;28;20245;-67
2023/06/30 08:36:36;;;;;;;7.37;6.83;;;29.40;56.80;;;;;;6276752;28;20230;-68
2023/06/30 08:39:39;;;;;;;7.37;6.77;;;29.20;56.10;;;;;;6276755;28;20232;-68
2023/06/30 08:42:49;;;;;;;7.27;6.40;;;29.20;57.10;;;;;;6273266;28;20243;-66
2023/06/30 08:45:54;;;;;;;6.50;5.80;;;29.40;56.70;;;;;;6251266;28;20237;-66
2023/06/30 08:48:57;;;;;;;6.03;5.43;;;29.30;56.40;;;;;;6251717;28;20680;-67
2023/06/30 08:52:01;;;;;;;6.53;5.93;;;29.50;56.60;;;;;;6251708;28;20231;-67
2023/06/30 08:55:07;;;;;;;6.80;6.07;;;29.70;56.40;;;;;;6251462;28;20342;-67
2023/06/30 08:58:12;;;;;;;6.40;5.83;;;29.70;56.70;;;;;;6251576;28;20231;-67
2023/06/30 09:01:28;;;;;;;6.05;5.50;;;29.80;56.50;;;;;;6251680;28;20228;-67
2023/06/30 09:04:32;;;;;;;5.72;5.22;;;29.70;55.30;;;;;;6251538;28;20761;-67
2023/06/30 09:07:42;;;;;;;6.65;5.97;;;29.60;55.60;;;;;;6251565;28;20533;-67
2023/06/30 09:10:48;;;;;;;6.20;5.60;;;29.50;56.00;;;;;;6251422;28;20236;-67
2023/06/30 09:13:54;;;;;;;6.37;5.87;;;29.40;57.00;;;;;;6251460;28;20551;-67
2023/06/30 09:16:58;;;;;;;7.43;6.73;;;29.40;56.60;;;;;;6251192;28;20238;-66
2023/06/30 09:20:01;;;;;;;6.70;6.10;;;29.10;57.40;;;;;;6251154;28;20780;-66
2023/06/30 09:23:05;;;;;;;6.28;5.78;;;29.30;57.60;;;;;;6250594;28;20285;-66
2023/06/30 09:26:14;;;;;;;6.53;5.70;;;29.40;57.20;;;;;;6250563;28;20214;-66
2023/06/30 09:29:23;;;;;;;6.93;6.40;;;29.60;57.10;;;;;;6250968;28;20234;-66
2023/06/30 09:32:33;;;;;;;7.13;6.60;;;29.90;56.80;;;;;;6251164;28;20310;-66
2023/06/30 09:35:38;;;;;;;6.97;6.47;;;29.60;57.50;;;;;;6251486;28;20231;-67
2023/06/30 09:38:41;;;;;;;7.88;7.13;;;29.80;57.70;;;;;;6274107;28;20655;-66
2023/06/30 09:41:45;;;;;;;6.93;6.28;;;29.80;57.60;;;;;;6275564;28;20222;-66
2023/06/30 09:44:53;;;;;;;7.18;6.68;;;29.90;57.70;;;;;;6254065;28;20539;-66
2023/06/30 09:47:56;;;;;;;7.30;6.60;;;30.20;57.40;;;;;;6250817;28;20292;-66
2023/06/30 09:51:00;;;;;;;7.97;6.75;;;30.40;57.20;;;;;;6240890;28;20548;-67
2023/06/30 09:54:09;;;;;;;7.40;6.80;;;30.50;57.50;;;;;;6250537;28;20241;-66
2023/06/30 09:57:12;;;;;;;7.45;6.95;;;30.60;57.30;;;;;;6250040;28;20258;-66
2023/06/30 10:00:20;;;;;;;7.47;6.78;;;30.60;56.30;;;;;;6249771;28;20224;-66
2023/06/30 10:03:47;;;;;;;6.35;5.93;;;30.50;56.60;;;;;;6250389;28;20228;-66
2023/06/30 10:06:52;;;;;;;6.88;6.35;;;30.20;57.70;;;;;;6250026;28;20342;-66
2023/06/30 10:09:56;;;;;;;6.93;6.32;;;30.20;57.90;;;;;;6250193;28;20553;-66
2023/06/30 10:13:00;;;;;;;6.82;6.22;;;30.20;58.40;;;;;;6250427;28;20310;-66
2023/06/30 10:16:07;;;;;;;5.97;5.47;;;30.40;58.30;;;;;;6250154;28;20727;-66
2023/06/30 10:19:11;;;;;;;5.93;5.53;;;30.60;57.70;;;;;;6249730;28;20257;-68
2023/06/30 10:22:14;;;;;;;5.65;5.15;;;30.40;56.90;;;;;;6250300;28;20254;-66
2023/06/30 10:25:20;;;;;;;5.60;5.20;;;29.70;56.90;;;;;;6249989;28;20246;-67
2023/06/30 10:28:23;;;;;;;5.70;5.40;;;29.80;57.50;;;;;;6249928;28;20648;-68
2023/06/30 10:31:28;;;;;;;6.78;5.40;;;30.00;57.20;;;;;;6249631;28;20242;-66
2023/06/30 10:34:33;;;;;;;4.78;4.47;;;30.10;57.20;;;;;;6249405;28;20268;-67
2023/06/30 10:37:36;;;;;;;5.65;5.25;;;30.30;56.70;;;;;;6264284;28;20261;-67
2023/06/30 10:40:40;;;;;;;5.13;4.78;;;30.40;56.20;;;;;;6273955;28;20237;-66
2023/06/30 10:44:05;;;;;;;5.38;4.97;;;30.60;56.00;;;;;;6262182;28;20230;-66
2023/06/30 10:47:10;;;;;;;5.60;5.10;;;30.60;56.20;;;;;;6248851;28;20220;-66
2023/06/30 10:50:14;;;;;;;6.47;5.90;;;30.70;57.00;;;;;;6255339;28;20252;-66
2023/06/30 10:53:18;;;;;;;5.40;5.00;;;30.80;56.80;;;;;;6252472;28;20203;-66
2023/06/30 10:56:23;;;;;;;6.72;6.07;;;30.70;56.40;;;;;;6279633;28;20238;-67
2023/06/30 10:59:26;;;;;;;6.18;5.78;;;30.70;56.40;;;;;;6294091;28;20227;-66
2023/06/30 11:02:32;;;;;;;5.60;5.13;;;30.40;56.70;;;;;;6282578;28;20233;-67
2023/06/30 11:05:36;;;;;;;6.00;5.38;;;30.50;57.40;;;;;;6278579;28;20226;-67
2023/06/30 11:08:39;;;;;;;5.80;5.40;;;30.50;58.00;;;;;;6273543;28;20226;-67
2023/06/30 11:11:50;;;;;;;6.00;5.57;;;30.40;58.00;;;;;;6278676;28;20256;-67
2023/06/30 11:14:55;;;;;;;6.63;6.03;;;30.40;57.90;;;;;;6278666;28;20312;-66
2023/06/30 11:18:01;;;;;;;6.93;6.32;;;30.50;58.40;;;;;;6278884;28;20727;-65
2023/06/30 11:21:06;;;;;;;6.45;5.85;;;30.60;58.60;;;;;;6278842;28;20226;-65
2023/06/30 11:24:15;;;;;;;7.18;6.57;;;30.60;58.90;;;;;;6279021;28;20333;-65
2023/06/30 11:27:19;;;;;;;5.78;5.38;;;30.70;59.10;;;;;;6278661;28;20231;-69
2023/06/30 11:30:23;;;;;;;6.30;5.90;;;30.70;59.10;;;;;;6279064;28;20237;-66
2023/06/30 11:33:28;;;;;;;6.68;6.15;;;30.70;59.60;;;;;;6271650;28;20257;-66
2023/06/30 11:36:31;;;;;;;6.82;6.05;;;30.50;59.60;;;;;;6253827;28;20330;-68
2023/06/30 11:39:35;;;;;;;7.13;6.55;;;30.50;59.20;;;;;;6254071;28;20242;-67
2023/06/30 11:42:42;;;;;;;6.30;5.57;;;30.60;59.50;;;;;;6250426;28;20304;-67
2023/06/30 11:45:56;;;;;;;6.95;6.55;;;30.80;59.60;;;;;;6229018;28;20323;-66
2023/06/30 11:49:01;;;;;;;6.35;5.85;;;30.70;58.30;;;;;;6228969;28;20243;-67
2023/06/30 11:52:05;;;;;;;6.50;6.00;;;31.00;57.60;;;;;;6229096;28;20220;-67
2023/06/30 11:55:10;;;;;;;6.70;6.00;;;31.20;57.90;;;;;;6243625;28;20239;-71
2023/06/30 11:58:19;;;;;;;6.55;6.15;;;31.00;56.90;;;;;;6253220;28;20242;-66
2023/06/30 12:01:22;;;;;;;5.68;5.30;;;30.60;57.20;;;;;;6239584;28;20232;-70
2023/06/30 12:04:36;;;;;;;5.93;5.53;;;30.40;57.80;;;;;;6253255;28;20224;-64
2023/06/30 12:07:40;;;;;;;6.63;6.22;;;30.60;57.90;;;;;;6251995;28;20540;-68
2023/06/30 12:10:43;;;;;;;6.40;5.93;;;30.50;57.50;;;;;;6252617;28;20313;-68
2023/06/30 12:13:47;;;;;;;5.95;5.55;;;30.50;57.40;;;;;;6253055;28;20327;-66
2023/06/30 12:16:51;;;;;;;7.40;6.00;;;30.50;56.70;;;;;;6252872;28;20227;-69
2023/06/30 12:19:56;;;;;;;6.05;5.65;;;30.60;56.10;;;;;;6252978;28;20227;-68
2023/06/30 12:22:59;;;;;;;6.80;6.30;;;30.50;57.00;;;;;;6251624;28;20581;-66
2023/06/30 12:26:03;;;;;;;6.22;5.68;;;30.50;56.90;;;;;;6253026;28;20693;-67
2023/06/30 12:29:06;;;;;;;5.93;5.43;;;30.70;58.40;;;;;;6252434;28;20241;-67
2023/06/30 12:32:13;;;;;;;5.57;5.18;;;30.80;57.10;;;;;;6253014;28;20249;-68
2023/06/30 12:35:28;;;;;;;5.45;4.68;;;30.90;57.20;;;;;;6274610;28;20381;-65
2023/06/30 12:38:32;;;;;;;5.03;4.72;;;30.80;55.70;;;;;;6254889;28;20310;-66
2023/06/30 12:41:35;;;;;;;5.90;5.50;;;30.60;55.90;;;;;;6252698;28;20234;-66
2023/06/30 12:44:38;;;;;;;5.18;4.88;;;30.60;56.70;;;;;;6252383;28;20235;-66
2023/06/30 12:47:41;;;;;;;5.53;5.13;;;30.40;57.00;;;;;;6269936;28;20601;-64
2023/06/30 12:50:46;;;;;;;5.75;5.35;;;30.40;57.00;;;;;;6276833;28;20337;-70
2023/06/30 12:53:50;;;;;;;5.85;5.45;;;30.50;57.30;;;;;;6277181;28;20380;-65
2023/06/30 12:56:53;;;;;;;5.75;5.25;;;30.60;58.00;;;;;;6276403;28;20310;-65
2023/06/30 12:59:56;;;;;;;6.35;5.75;;;30.50;57.60;;;;;;6276954;28;20245;-67
2023/06/30 13:03:00;;;;;;;5.93;5.47;;;30.70;57.90;;;;;;6266771;28;20260;-67
2023/06/30 13:06:04;;;;;;;5.93;5.53;;;30.50;59.40;;;;;;6276964;28;20243;-65
2023/06/30 13:09:08;;;;;;;6.57;5.70;;;30.60;58.90;;;;;;6276609;28;20236;-69
2023/06/30 13:12:11;;;;;;;5.45;5.05;;;30.70;57.50;;;;;;6276457;28;20249;-66
2023/06/30 13:15:14;;;;;;;5.35;4.85;;;30.70;58.50;;;;;;6276362;28;20261;-68
2023/06/30 13:18:17;;;;;;;6.25;5.85;;;30.80;58.40;;;;;;6275992;28;20226;-65
2023/06/30 13:21:22;;;;;;;6.32;5.70;;;30.70;59.20;;;;;;6276408;28;20253;-66
2023/06/30 13:24:28;;;;;;;6.45;5.97;;;30.40;58.40;;;;;;6276428;28;20230;-65
2023/06/30 13:27:32;;;;;;;6.60;6.00;;;30.30;59.80;;;;;;6276244;28;20584;-68
2023/06/30 13:30:35;;;;;;;5.72;5.22;;;30.40;58.60;;;;;;6275692;28;20236;-66
2023/06/30 13:33:38;;;;;;;5.20;4.80;;;30.50;56.10;;;;;;6275613;28;20239;-66
2023/06/30 13:36:43;;;;;;;5.60;5.20;;;30.40;56.90;;;;;;6275340;28;20313;-64
2023/06/30 13:39:47;;;;;;;6.05;5.35;;;30.30;57.40;;;;;;6276832;28;20238;-64
2023/06/30 13:42:51;;;;;;;5.75;5.35;;;30.20;57.20;;;;;;6275953;28;20250;-64
2023/06/30 13:45:55;;;;;;;5.82;5.43;;;30.10;56.90;;;;;;6275820;28;20237;-63
2023/06/30 13:48:58;;;;;;;6.60;5.68;;;30.20;57.60;;;;;;6275705;28;20301;-65
2023/06/30 13:52:03;;;;;;;5.65;5.35;;;30.30;59.00;;;;;;6274786;28;20230;-65
2023/06/30 13:55:07;;;;;;;5.50;5.10;;;30.10;59.20;;;;;;6275692;28;20313;-66
2023/06/30 13:58:10;;;;;;;5.07;4.63;;;30.10;59.00;;;;;;6276281;28;20233;-67
2023/06/30 14:01:13;;;;;;;5.53;5.03;;;30.30;58.70;;;;;;6288610;28;20235;-67
2023/06/30 14:04:17;;;;;;;5.82;5.43;;;30.20;58.20;;;;;;6291651;28;20563;-66
2023/06/30 14:07:22;;;;;;;6.10;5.60;;;30.20;58.60;;;;;;6282228;28;20231;-68
2023/06/30 14:10:25;;;;;;;9.93;5.97;;;30.00;59.00;;;;;;6276503;28;20237;-67
2023/06/30 14:13:28;;;;;;;6.15;5.75;;;30.00;60.20;;;;;;6275770;28;20231;-68
2023/06/30 14:16:32;;;;;;;5.97;5.57;;;30.00;59.50;;;;;;6274925;28;20578;-68
2023/06/30 14:19:35;;;;;;;5.63;5.22;;;30.00;60.20;;;;;;6275028;28;20293;-68
2023/06/30 14:22:39;;;;;;;6.07;5.55;;;30.10;59.10;;;;;;6274814;28;20233;-68
2023/06/30 14:25:43;;;;;;;5.78;5.38;;;30.30;58.40;;;;;;6274907;28;20296;-69
2023/06/30 14:28:46;;;;;;;7.00;6.30;;;30.30;57.40;;;;;;6274613;28;20608;-68
2023/06/30 14:31:49;;;;;;;6.80;6.15;;;30.30;57.30;;;;;;6274991;28;20238;-68
2023/06/30 14:34:53;;;;;;;6.15;5.75;;;30.30;57.60;;;;;;6255602;28;20240;-68
2023/06/30 14:37:57;;;;;;;8.13;5.90;;;30.40;57.40;;;;;;6250125;28;20231;-69
2023/06/30 14:41:01;;;;;;;5.97;5.47;;;30.40;57.30;;;;;;6249737;28;20292;-71
2023/06/30 14:44:05;;;;;;;5.60;5.13;;;30.40;57.80;;;;;;6249172;28;20241;-71
2023/06/30 14:47:08;;;;;;;5.68;5.28;;;30.50;57.10;;;;;;6249596;28;20229;-69
2023/06/30 14:50:12;;;;;;;5.75;5.25;;;30.40;56.90;;;;;;6249275;28;20640;-69
2023/06/30 14:53:16;;;;;;;5.60;5.20;;;30.40;57.00;;;;;;6249704;28;20601;-69
2023/06/30 14:56:20;;;;;;;5.60;5.18;;;30.50;57.00;;;;;;6249888;28;20208;-69
2023/06/30 14:59:23;;;;;;;6.13;5.63;;;30.40;56.80;;;;;;6251587;28;20224;-67
2023/06/30 15:02:26;;;;;;;5.38;4.97;;;30.40;56.50;;;;;;6253604;28;20223;-67
2023/06/30 15:05:30;;;;;;;5.10;4.75;;;30.40;56.60;;;;;;6249687;28;20623;-67
2023/06/30 15:08:35;;;;;;;5.88;5.43;;;30.50;56.20;;;;;;6249855;28;20333;-67
2023/06/30 15:11:38;;;;;;;5.82;5.43;;;30.30;56.80;;;;;;6241805;28;20250;-67
2023/06/30 15:14:42;;;;;;;5.25;4.85;;;30.40;56.30;;;;;;6250970;28;20310;-68
2023/06/30 15:17:45;;;;;;;5.47;4.85;;;30.40;56.60;;;;;;6250732;28;20241;-67
2023/06/30 15:20:48;;;;;;;5.30;4.90;;;30.50;56.90;;;;;;6250524;28;20682;-67
2023/06/30 15:23:53;;;;;;;4.88;4.57;;;30.50;56.40;;;;;;6252599;28;20227;-67
2023/06/30 15:26:56;;;;;;;5.68;5.15;;;30.40;56.30;;;;;;6251647;28;20310;-67
2023/06/30 15:29:59;;;;;;;5.70;5.20;;;30.10;56.10;;;;;;6249929;28;20529;-67
2023/06/30 15:33:06;;;;;;;5.37;5.00;;;30.00;56.80;;;;;;6252209;28;20235;-67
2023/06/30 15:36:10;;;;;;;5.20;4.80;;;29.90;57.50;;;;;;6273513;28;20227;-67
2023/06/30 15:39:15;;;;;;;5.80;5.15;;;30.10;57.60;;;;;;6273505;28;20670;-67
2023/06/30 15:42:18;;;;;;;5.88;5.47;;;30.20;58.20;;;;;;6273201;28;20277;-67
2023/06/30 15:45:21;;;;;;;6.07;5.68;;;30.10;58.30;;;;;;6273341;28;20222;-67
2023/06/30 15:48:25;;;;;;;5.90;5.40;;;30.20;58.70;;;;;;6273124;28;20241;-67
2023/06/30 15:51:28;;;;;;;6.10;5.57;;;30.30;58.40;;;;;;6273660;28;20313;-68
2023/06/30 15:54:33;;;;;;;7.93;6.07;;;30.30;58.60;;;;;;6273650;28;20245;-68
2023/06/30 15:57:36;;;;;;;6.55;5.97;;;30.30;58.50;;;;;;6277000;28;20617;-68